sensor_id;sensor_type;location;lat;lon;timestamp;temperature;humidity
40289;DHT22;28991;52.028;5.526;2023-03-20T00:03:41;19.00;49.60
40289;DHT22;28991;52.028;5.526;2023-03-20T00:06:14;19.10;49.70
40289;DHT22;28991;52.028;5.526;2023-03-20T00:08:40;19.00;49.60
40289;DHT22;28991;52.028;5.526;2023-03-20T00:11:29;19.10;49.70
40289;DHT22;28991;52.028;5.526;2023-03-20T00:14:00;19.10;49.70
40289;DHT22;28991;52.028;5.526;2023-03-20T00:16:29;18.60;49.40
40289;DHT22;28991;52.028;5.526;2023-03-20T00:18:56;18.90;49.60
40289;DHT22;28991;52.028;5.526;2023-03-20T00:21:23;19.70;50.00
40289;DHT22;28991;52.028;5.526;2023-03-20T00:23:48;18.90;49.60
40289;DHT22;28991;52.028;5.526;2023-03-20T00:26:15;18.30;49.30
40289;DHT22;28991;52.028;5.526;2023-03-20T00:28:47;19.40;49.90
40289;DHT22;28991;52.028;5.526;2023-03-20T00:31:20;18.90;49.60
40289;DHT22;28991;52.028;5.526;2023-03-20T00:33:47;19.00;49.70
40289;DHT22;28991;52.028;5.526;2023-03-20T00:36:12;18.90;49.60
40289;DHT22;28991;52.028;5.526;2023-03-20T00:38:38;19.00;49.70
40289;DHT22;28991;52.028;5.526;2023-03-20T00:43:47;19.10;49.80
40289;DHT22;28991;52.028;5.526;2023-03-20T00:46:14;19.00;49.70
40289;DHT22;28991;52.028;5.526;2023-03-20T00:48:40;19.20;49.80
40289;DHT22;28991;52.028;5.526;2023-03-20T00:51:06;18.70;49.50
40289;DHT22;28991;52.028;5.526;2023-03-20T00:53:32;19.40;49.90
40289;DHT22;28991;52.028;5.526;2023-03-20T00:55:58;19.30;49.90
40289;DHT22;28991;52.028;5.526;2023-03-20T00:58:24;18.90;49.70
40289;DHT22;28991;52.028;5.526;2023-03-20T01:00:50;18.80;49.60
40289;DHT22;28991;52.028;5.526;2023-03-20T01:03:21;19.10;49.80
40289;DHT22;28991;52.028;5.526;2023-03-20T01:05:48;19.00;49.70
40289;DHT22;28991;52.028;5.526;2023-03-20T01:08:20;19.20;49.90
40289;DHT22;28991;52.028;5.526;2023-03-20T01:10:47;18.90;49.70
40289;DHT22;28991;52.028;5.526;2023-03-20T01:13:25;19.00;49.80
40289;DHT22;28991;52.028;5.526;2023-03-20T01:15:52;18.90;49.70
40289;DHT22;28991;52.028;5.526;2023-03-20T01:18:20;18.60;49.50
40289;DHT22;28991;52.028;5.526;2023-03-20T01:20:47;18.90;49.70
40289;DHT22;28991;52.028;5.526;2023-03-20T01:23:14;18.80;49.60
40289;DHT22;28991;52.028;5.526;2023-03-20T01:25:40;19.30;49.90
40289;DHT22;28991;52.028;5.526;2023-03-20T01:28:15;19.00;49.70
40289;DHT22;28991;52.028;5.526;2023-03-20T01:30:41;19.70;50.10
40289;DHT22;28991;52.028;5.526;2023-03-20T01:33:21;18.30;49.30
40289;DHT22;28991;52.028;5.526;2023-03-20T01:35:48;19.50;50.00
40289;DHT22;28991;52.028;5.526;2023-03-20T01:38:23;19.10;49.80
40289;DHT22;28991;52.028;5.526;2023-03-20T01:41:07;19.00;49.70
40289;DHT22;28991;52.028;5.526;2023-03-20T01:43:35;19.10;49.90
40289;DHT22;28991;52.028;5.526;2023-03-20T01:46:15;18.90;49.80
40289;DHT22;28991;52.028;5.526;2023-03-20T01:51:19;18.60;49.60
40289;DHT22;28991;52.028;5.526;2023-03-20T01:54:01;18.90;49.70
40289;DHT22;28991;52.028;5.526;2023-03-20T01:56:30;18.50;49.50
40289;DHT22;28991;52.028;5.526;2023-03-20T01:59:03;19.00;49.80
40289;DHT22;28991;52.028;5.526;2023-03-20T02:01:30;18.90;49.70
40289;DHT22;28991;52.028;5.526;2023-03-20T02:03:56;19.00;49.80
40289;DHT22;28991;52.028;5.526;2023-03-20T02:06:23;18.90;49.70
40289;DHT22;28991;52.028;5.526;2023-03-20T02:08:50;19.00;49.80
40289;DHT22;28991;52.028;5.526;2023-03-20T02:11:18;18.70;49.60
40289;DHT22;28991;52.028;5.526;2023-03-20T02:13:45;19.10;49.80
40289;DHT22;28991;52.028;5.526;2023-03-20T02:16:13;19.00;49.80
40289;DHT22;28991;52.028;5.526;2023-03-20T02:18:45;18.90;49.70
40289;DHT22;28991;52.028;5.526;2023-03-20T02:24:13;19.00;49.80
40289;DHT22;28991;52.028;5.526;2023-03-20T02:35:19;19.00;49.80
40289;DHT22;28991;52.028;5.526;2023-03-20T02:51:36;19.20;50.00
40289;DHT22;28991;52.028;5.526;2023-03-20T02:54:10;18.70;49.60
40289;DHT22;28991;52.028;5.526;2023-03-20T02:56:48;19.00;49.80
40289;DHT22;28991;52.028;5.526;2023-03-20T02:59:28;19.10;49.90
40289;DHT22;28991;52.028;5.526;2023-03-20T03:02:09;19.20;49.90
40289;DHT22;28991;52.028;5.526;2023-03-20T03:04:43;19.70;50.20
40289;DHT22;28991;52.028;5.526;2023-03-20T03:07:13;18.90;49.80
40289;DHT22;28991;52.028;5.526;2023-03-20T03:09:50;19.00;49.80
40289;DHT22;28991;52.028;5.526;2023-03-20T03:12:28;19.50;50.00
40289;DHT22;28991;52.028;5.526;2023-03-20T03:14:59;19.00;49.80
40289;DHT22;28991;52.028;5.526;2023-03-20T03:17:28;18.80;49.70
40289;DHT22;28991;52.028;5.526;2023-03-20T03:20:02;18.40;49.50
40289;DHT22;28991;52.028;5.526;2023-03-20T03:22:30;18.90;49.70
40289;DHT22;28991;52.028;5.526;2023-03-20T03:24:56;19.20;49.90
40289;DHT22;28991;52.028;5.526;2023-03-20T03:27:26;19.80;50.30
40289;DHT22;28991;52.028;5.526;2023-03-20T03:29:57;18.90;49.70
40289;DHT22;28991;52.028;5.526;2023-03-20T03:32:39;19.00;49.80
40289;DHT22;28991;52.028;5.526;2023-03-20T03:35:14;18.80;49.70
40289;DHT22;28991;52.028;5.526;2023-03-20T03:43:13;19.10;49.90
40289;DHT22;28991;52.028;5.526;2023-03-20T03:45:48;18.70;49.60
40289;DHT22;28991;52.028;5.526;2023-03-20T03:48:20;18.90;49.80
40289;DHT22;28991;52.028;5.526;2023-03-20T03:50:53;19.20;49.90
40289;DHT22;28991;52.028;5.526;2023-03-20T03:53:28;18.90;49.70
40289;DHT22;28991;52.028;5.526;2023-03-20T03:56:00;18.90;49.70
40289;DHT22;28991;52.028;5.526;2023-03-20T03:58:34;18.80;49.70
40289;DHT22;28991;52.028;5.526;2023-03-20T04:01:02;19.10;49.90
40289;DHT22;28991;52.028;5.526;2023-03-20T04:03:31;19.00;49.80
40289;DHT22;28991;52.028;5.526;2023-03-20T04:05:59;19.20;49.90
40289;DHT22;28991;52.028;5.526;2023-03-20T04:08:25;18.90;49.80
40289;DHT22;28991;52.028;5.526;2023-03-20T04:10:50;18.80;49.70
40289;DHT22;28991;52.028;5.526;2023-03-20T04:13:16;18.70;49.70
40289;DHT22;28991;52.028;5.526;2023-03-20T04:15:42;18.30;49.50
40289;DHT22;28991;52.028;5.526;2023-03-20T04:18:14;19.10;49.90
40289;DHT22;28991;52.028;5.526;2023-03-20T04:20:41;19.00;49.80
40289;DHT22;28991;52.028;5.526;2023-03-20T04:23:07;19.30;50.00
40289;DHT22;28991;52.028;5.526;2023-03-20T04:25:33;19.00;49.80
40289;DHT22;28991;52.028;5.526;2023-03-20T04:27:58;18.90;49.80
40289;DHT22;28991;52.028;5.526;2023-03-20T04:30:24;18.00;49.30
40289;DHT22;28991;52.028;5.526;2023-03-20T04:32:49;18.60;49.60
40289;DHT22;28991;52.028;5.526;2023-03-20T04:35:15;18.50;49.60
40289;DHT22;28991;52.028;5.526;2023-03-20T04:37:40;18.60;49.60
40289;DHT22;28991;52.028;5.526;2023-03-20T04:40:06;19.00;49.80
40289;DHT22;28991;52.028;5.526;2023-03-20T04:42:32;18.90;49.80
40289;DHT22;28991;52.028;5.526;2023-03-20T04:44:58;18.70;49.70
40289;DHT22;28991;52.028;5.526;2023-03-20T04:47:23;18.80;49.70
40289;DHT22;28991;52.028;5.526;2023-03-20T04:49:49;18.80;49.70
40289;DHT22;28991;52.028;5.526;2023-03-20T04:52:15;18.50;49.60
40289;DHT22;28991;52.028;5.526;2023-03-20T04:54:40;19.00;49.90
40289;DHT22;28991;52.028;5.526;2023-03-20T04:57:06;18.70;49.70
40289;DHT22;28991;52.028;5.526;2023-03-20T04:59:31;19.00;49.90
40289;DHT22;28991;52.028;5.526;2023-03-20T05:01:57;19.00;49.80
40289;DHT22;28991;52.028;5.526;2023-03-20T05:04:22;17.90;49.20
40289;DHT22;28991;52.028;5.526;2023-03-20T05:06:48;18.90;49.80
40289;DHT22;28991;52.028;5.526;2023-03-20T05:09:15;18.80;49.70
40289;DHT22;28991;52.028;5.526;2023-03-20T05:11:41;18.90;49.80
40289;DHT22;28991;52.028;5.526;2023-03-20T05:14:07;18.80;49.70
40289;DHT22;28991;52.028;5.526;2023-03-20T05:16:32;19.00;49.80
40289;DHT22;28991;52.028;5.526;2023-03-20T05:18:58;19.00;49.80
40289;DHT22;28991;52.028;5.526;2023-03-20T05:21:24;18.80;49.70
40289;DHT22;28991;52.028;5.526;2023-03-20T05:23:49;18.70;49.70
40289;DHT22;28991;52.028;5.526;2023-03-20T05:26:15;18.80;49.70
40289;DHT22;28991;52.028;5.526;2023-03-20T05:28:41;19.00;49.80
40289;DHT22;28991;52.028;5.526;2023-03-20T05:31:06;18.70;49.60
40289;DHT22;28991;52.028;5.526;2023-03-20T05:33:32;18.90;50.40
40289;DHT22;28991;52.028;5.526;2023-03-20T05:35:58;18.80;49.70
40289;DHT22;28991;52.028;5.526;2023-03-20T05:38:23;18.80;49.80
40289;DHT22;28991;52.028;5.526;2023-03-20T05:40:58;18.90;49.80
40289;DHT22;28991;52.028;5.526;2023-03-20T05:43:24;18.80;49.70
40289;DHT22;28991;52.028;5.526;2023-03-20T05:45:50;18.90;49.80
40289;DHT22;28991;52.028;5.526;2023-03-20T05:48:15;19.00;49.90
40289;DHT22;28991;52.028;5.526;2023-03-20T05:50:41;18.90;49.80
40289;DHT22;28991;52.028;5.526;2023-03-20T05:53:07;18.90;49.80
40289;DHT22;28991;52.028;5.526;2023-03-20T05:55:32;18.80;49.80
40289;DHT22;28991;52.028;5.526;2023-03-20T05:57:58;18.10;49.40
40289;DHT22;28991;52.028;5.526;2023-03-20T06:00:24;18.90;49.80
40289;DHT22;28991;52.028;5.526;2023-03-20T06:02:49;18.50;49.60
40289;DHT22;28991;52.028;5.526;2023-03-20T06:05:15;18.60;49.70
40289;DHT22;28991;52.028;5.526;2023-03-20T06:07:41;18.90;49.80
40289;DHT22;28991;52.028;5.526;2023-03-20T06:10:07;18.70;49.70
40289;DHT22;28991;52.028;5.526;2023-03-20T06:12:32;18.70;49.50
40289;DHT22;28991;52.028;5.526;2023-03-20T06:15:01;18.90;49.30
40289;DHT22;28991;52.028;5.526;2023-03-20T06:17:27;18.90;49.10
40289;DHT22;28991;52.028;5.526;2023-03-20T06:19:53;18.40;47.10
40289;DHT22;28991;52.028;5.526;2023-03-20T06:22:18;19.00;46.90
40289;DHT22;28991;52.028;5.526;2023-03-20T06:24:44;19.00;46.80
40289;DHT22;28991;52.028;5.526;2023-03-20T06:27:10;19.40;46.80
40289;DHT22;28991;52.028;5.526;2023-03-20T06:29:36;19.20;46.90
40289;DHT22;28991;52.028;5.526;2023-03-20T06:32:01;19.30;46.60
40289;DHT22;28991;52.028;5.526;2023-03-20T06:34:27;19.30;46.60
40289;DHT22;28991;52.028;5.526;2023-03-20T06:36:53;19.20;46.30
40289;DHT22;28991;52.028;5.526;2023-03-20T06:39:18;19.30;46.30
40289;DHT22;28991;52.028;5.526;2023-03-20T06:41:44;19.10;45.60
40289;DHT22;28991;52.028;5.526;2023-03-20T06:44:09;19.70;45.50
40289;DHT22;28991;52.028;5.526;2023-03-20T06:46:35;19.40;45.40
40289;DHT22;28991;52.028;5.526;2023-03-20T06:49:00;19.40;44.80
40289;DHT22;28991;52.028;5.526;2023-03-20T06:51:26;19.60;45.50
40289;DHT22;28991;52.028;5.526;2023-03-20T06:53:51;20.10;45.60
40289;DHT22;28991;52.028;5.526;2023-03-20T06:56:17;19.60;46.00
40289;DHT22;28991;52.028;5.526;2023-03-20T06:58:43;17.50;44.30
40289;DHT22;28991;52.028;5.526;2023-03-20T07:01:11;19.40;45.10
40289;DHT22;28991;52.028;5.526;2023-03-20T07:03:37;19.60;45.40
40289;DHT22;28991;52.028;5.526;2023-03-20T07:06:03;19.50;45.90
40289;DHT22;28991;52.028;5.526;2023-03-20T07:08:29;19.40;45.50
40289;DHT22;28991;52.028;5.526;2023-03-20T07:10:54;19.70;46.30
40289;DHT22;28991;52.028;5.526;2023-03-20T07:13:20;19.50;46.30
40289;DHT22;28991;52.028;5.526;2023-03-20T07:15:45;19.10;46.20
40289;DHT22;28991;52.028;5.526;2023-03-20T07:18:11;19.40;46.10
40289;DHT22;28991;52.028;5.526;2023-03-20T07:20:36;19.80;46.40
40289;DHT22;28991;52.028;5.526;2023-03-20T07:23:02;19.50;46.20
40289;DHT22;28991;52.028;5.526;2023-03-20T07:25:28;19.50;46.30
40289;DHT22;28991;52.028;5.526;2023-03-20T07:27:54;19.80;46.50
40289;DHT22;28991;52.028;5.526;2023-03-20T07:30:19;20.10;46.70
40289;DHT22;28991;52.028;5.526;2023-03-20T07:32:45;19.50;46.30
40289;DHT22;28991;52.028;5.526;2023-03-20T07:35:12;19.50;46.20
40289;DHT22;28991;52.028;5.526;2023-03-20T07:37:38;19.60;46.20
40289;DHT22;28991;52.028;5.526;2023-03-20T07:40:04;19.50;46.00
40289;DHT22;28991;52.028;5.526;2023-03-20T07:42:29;19.50;46.10
40289;DHT22;28991;52.028;5.526;2023-03-20T07:44:55;19.50;46.20
40289;DHT22;28991;52.028;5.526;2023-03-20T07:47:20;19.40;46.10
40289;DHT22;28991;52.028;5.526;2023-03-20T07:49:46;19.50;46.10
40289;DHT22;28991;52.028;5.526;2023-03-20T07:52:12;19.50;45.50
40289;DHT22;28991;52.028;5.526;2023-03-20T07:54:37;19.50;44.90
40289;DHT22;28991;52.028;5.526;2023-03-20T07:57:03;19.40;44.60
40289;DHT22;28991;52.028;5.526;2023-03-20T07:59:30;19.90;44.90
40289;DHT22;28991;52.028;5.526;2023-03-20T08:01:56;19.80;44.40
40289;DHT22;28991;52.028;5.526;2023-03-20T08:04:21;19.60;44.70
40289;DHT22;28991;52.028;5.526;2023-03-20T08:06:48;18.50;44.10
40289;DHT22;28991;52.028;5.526;2023-03-20T08:09:14;20.30;45.00
40289;DHT22;28991;52.028;5.526;2023-03-20T08:11:40;19.80;44.80
40289;DHT22;28991;52.028;5.526;2023-03-20T08:14:06;19.20;44.40
40289;DHT22;28991;52.028;5.526;2023-03-20T08:16:31;20.00;45.10
40289;DHT22;28991;52.028;5.526;2023-03-20T08:18:57;19.80;44.90
40289;DHT22;28991;52.028;5.526;2023-03-20T08:21:27;20.70;45.40
40289;DHT22;28991;52.028;5.526;2023-03-20T08:23:53;19.90;44.90
40289;DHT22;28991;52.028;5.526;2023-03-20T08:26:19;19.90;44.80
40289;DHT22;28991;52.028;5.526;2023-03-20T08:28:45;19.80;44.30
40289;DHT22;28991;52.028;5.526;2023-03-20T08:31:10;20.20;45.20
40289;DHT22;28991;52.028;5.526;2023-03-20T08:33:36;20.00;45.10
40289;DHT22;28991;52.028;5.526;2023-03-20T08:36:02;19.90;45.10
40289;DHT22;28991;52.028;5.526;2023-03-20T08:38:28;20.00;44.10
40289;DHT22;28991;52.028;5.526;2023-03-20T08:40:53;20.00;44.10
40289;DHT22;28991;52.028;5.526;2023-03-20T08:43:19;20.10;43.90
40289;DHT22;28991;52.028;5.526;2023-03-20T08:45:45;20.00;44.00
40289;DHT22;28991;52.028;5.526;2023-03-20T08:48:11;20.00;44.50
40289;DHT22;28991;52.028;5.526;2023-03-20T08:50:36;20.00;43.90
40289;DHT22;28991;52.028;5.526;2023-03-20T08:53:03;19.90;44.70
40289;DHT22;28991;52.028;5.526;2023-03-20T08:55:29;20.20;45.60
40289;DHT22;28991;52.028;5.526;2023-03-20T08:57:55;20.20;44.90
40289;DHT22;28991;52.028;5.526;2023-03-20T09:00:22;20.20;44.90
40289;DHT22;28991;52.028;5.526;2023-03-20T09:02:48;20.10;44.80
40289;DHT22;28991;52.028;5.526;2023-03-20T09:05:15;20.10;45.00
40289;DHT22;28991;52.028;5.526;2023-03-20T09:07:41;20.30;45.30
40289;DHT22;28991;52.028;5.526;2023-03-20T09:10:07;20.10;45.20
40289;DHT22;28991;52.028;5.526;2023-03-20T09:12:33;20.10;45.30
40289;DHT22;28991;52.028;5.526;2023-03-20T09:15:00;20.00;45.20
40289;DHT22;28991;52.028;5.526;2023-03-20T09:17:26;20.10;45.10
40289;DHT22;28991;52.028;5.526;2023-03-20T09:19:51;20.00;44.10
40289;DHT22;28991;52.028;5.526;2023-03-20T09:22:17;20.10;44.50
40289;DHT22;28991;52.028;5.526;2023-03-20T09:24:43;20.00;44.20
40289;DHT22;28991;52.028;5.526;2023-03-20T09:27:09;20.00;44.00
40289;DHT22;28991;52.028;5.526;2023-03-20T09:29:38;20.20;44.50
40289;DHT22;28991;52.028;5.526;2023-03-20T09:32:04;20.10;44.30
40289;DHT22;28991;52.028;5.526;2023-03-20T09:34:30;19.80;44.30
40289;DHT22;28991;52.028;5.526;2023-03-20T09:36:55;20.10;44.40
40289;DHT22;28991;52.028;5.526;2023-03-20T09:39:22;20.10;44.70
40289;DHT22;28991;52.028;5.526;2023-03-20T09:41:48;20.50;45.00
40289;DHT22;28991;52.028;5.526;2023-03-20T09:44:32;20.10;44.80
40289;DHT22;28991;52.028;5.526;2023-03-20T09:52:30;20.20;45.30
40289;DHT22;28991;52.028;5.526;2023-03-20T09:55:15;20.10;44.70
40289;DHT22;28991;52.028;5.526;2023-03-20T09:57:44;20.30;44.70
40289;DHT22;28991;52.028;5.526;2023-03-20T10:00:23;20.50;45.30
40289;DHT22;28991;52.028;5.526;2023-03-20T10:03:38;20.20;44.90
40289;DHT22;28991;52.028;5.526;2023-03-20T10:05:50;20.40;44.90
40289;DHT22;28991;52.028;5.526;2023-03-20T10:08:20;20.40;44.90
40289;DHT22;28991;52.028;5.526;2023-03-20T10:11:42;20.40;45.10
40289;DHT22;28991;52.028;5.526;2023-03-20T10:18:50;20.40;45.10
40289;DHT22;28991;52.028;5.526;2023-03-20T10:21:25;20.50;45.20
40289;DHT22;28991;52.028;5.526;2023-03-20T10:24:02;20.50;45.30
40289;DHT22;28991;52.028;5.526;2023-03-20T10:26:32;20.70;45.50
40289;DHT22;28991;52.028;5.526;2023-03-20T10:29:00;20.50;45.40
40289;DHT22;28991;52.028;5.526;2023-03-20T10:39:05;20.60;45.40
40289;DHT22;28991;52.028;5.526;2023-03-20T10:41:36;20.60;45.30
40289;DHT22;28991;52.028;5.526;2023-03-20T10:44:04;20.60;45.30
40289;DHT22;28991;52.028;5.526;2023-03-20T10:46:34;20.60;45.40
40289;DHT22;28991;52.028;5.526;2023-03-20T10:54:37;20.60;45.50
40289;DHT22;28991;52.028;5.526;2023-03-20T10:57:05;20.60;45.40
40289;DHT22;28991;52.028;5.526;2023-03-20T11:02:11;20.60;45.40
40289;DHT22;28991;52.028;5.526;2023-03-20T11:04:37;20.70;45.40
40289;DHT22;28991;52.028;5.526;2023-03-20T11:07:35;20.80;45.50
40289;DHT22;28991;52.028;5.526;2023-03-20T11:12:35;20.50;45.20
40289;DHT22;28991;52.028;5.526;2023-03-20T11:15:17;20.60;45.20
40289;DHT22;28991;52.028;5.526;2023-03-20T11:17:53;20.60;45.50
40289;DHT22;28991;52.028;5.526;2023-03-20T11:20:19;20.60;45.30
40289;DHT22;28991;52.028;5.526;2023-03-20T11:22:47;20.60;45.60
40289;DHT22;28991;52.028;5.526;2023-03-20T11:25:33;20.70;45.40
40289;DHT22;28991;52.028;5.526;2023-03-20T11:31:06;20.60;45.20
40289;DHT22;28991;52.028;5.526;2023-03-20T11:34:24;20.60;45.10
40289;DHT22;28991;52.028;5.526;2023-03-20T11:36:31;20.60;45.40
40289;DHT22;28991;52.028;5.526;2023-03-20T11:39:06;20.60;45.30
40289;DHT22;28991;52.028;5.526;2023-03-20T11:41:32;20.60;45.40
40289;DHT22;28991;52.028;5.526;2023-03-20T11:43:58;20.60;45.40
40289;DHT22;28991;52.028;5.526;2023-03-20T11:46:24;20.50;45.20
40289;DHT22;28991;52.028;5.526;2023-03-20T11:49:18;20.60;45.50
40289;DHT22;28991;52.028;5.526;2023-03-20T11:51:45;20.50;45.10
40289;DHT22;28991;52.028;5.526;2023-03-20T11:54:22;20.50;45.30
40289;DHT22;28991;52.028;5.526;2023-03-20T11:56:56;20.70;45.40
40289;DHT22;28991;52.028;5.526;2023-03-20T11:59:29;20.40;45.30
40289;DHT22;28991;52.028;5.526;2023-03-20T12:01:57;20.50;45.40
40289;DHT22;28991;52.028;5.526;2023-03-20T12:04:35;20.40;45.40
40289;DHT22;28991;52.028;5.526;2023-03-20T12:07:28;20.50;45.30
40289;DHT22;28991;52.028;5.526;2023-03-20T12:09:59;20.60;45.60
40289;DHT22;28991;52.028;5.526;2023-03-20T12:25:52;20.30;45.50
40289;DHT22;28991;52.028;5.526;2023-03-20T12:36:15;20.10;45.90
40289;DHT22;28991;52.028;5.526;2023-03-20T12:38:43;20.50;45.90
40289;DHT22;28991;52.028;5.526;2023-03-20T12:41:39;20.50;45.80
40289;DHT22;28991;52.028;5.526;2023-03-20T12:44:18;20.60;45.70
40289;DHT22;28991;52.028;5.526;2023-03-20T12:47:07;20.60;45.70
40289;DHT22;28991;52.028;5.526;2023-03-20T12:53:02;19.90;45.50
40289;DHT22;28991;52.028;5.526;2023-03-20T12:55:44;20.50;45.90
40289;DHT22;28991;52.028;5.526;2023-03-20T13:01:58;20.50;46.00
40289;DHT22;28991;52.028;5.526;2023-03-20T13:06:27;20.50;46.20
40289;DHT22;28991;52.028;5.526;2023-03-20T13:12:08;20.40;46.20
40289;DHT22;28991;52.028;5.526;2023-03-20T13:15:16;20.50;46.30
40289;DHT22;28991;52.028;5.526;2023-03-20T13:17:49;20.50;46.30
40289;DHT22;28991;52.028;5.526;2023-03-20T13:20:29;20.50;46.40
40289;DHT22;28991;52.028;5.526;2023-03-20T13:23:22;20.40;46.40
40289;DHT22;28991;52.028;5.526;2023-03-20T13:28:31;20.40;46.30
40289;DHT22;28991;52.028;5.526;2023-03-20T13:36:18;20.40;46.40
40289;DHT22;28991;52.028;5.526;2023-03-20T13:38:51;20.40;46.50
40289;DHT22;28991;52.028;5.526;2023-03-20T13:41:18;20.40;47.00
40289;DHT22;28991;52.028;5.526;2023-03-20T13:43:48;20.30;46.30
40289;DHT22;28991;52.028;5.526;2023-03-20T13:49:36;20.40;46.30
40289;DHT22;28991;52.028;5.526;2023-03-20T13:52:21;20.30;46.80
40289;DHT22;28991;52.028;5.526;2023-03-20T13:59:58;20.20;46.30
40289;DHT22;28991;52.028;5.526;2023-03-20T14:05:18;20.40;46.90
40289;DHT22;28991;52.028;5.526;2023-03-20T14:07:46;20.60;47.30
40289;DHT22;28991;52.028;5.526;2023-03-20T14:15:19;20.50;46.90
40289;DHT22;28991;52.028;5.526;2023-03-20T14:17:46;20.30;46.60
40289;DHT22;28991;52.028;5.526;2023-03-20T14:20:32;20.50;47.40
40289;DHT22;28991;52.028;5.526;2023-03-20T14:22:58;20.50;46.70
40289;DHT22;28991;52.028;5.526;2023-03-20T14:25:35;20.50;47.00
40289;DHT22;28991;52.028;5.526;2023-03-20T14:30:37;20.50;46.70
40289;DHT22;28991;52.028;5.526;2023-03-20T14:35:42;20.50;46.50
40289;DHT22;28991;52.028;5.526;2023-03-20T14:38:24;20.50;46.60
40289;DHT22;28991;52.028;5.526;2023-03-20T14:41:07;20.50;46.50
40289;DHT22;28991;52.028;5.526;2023-03-20T14:49:25;20.40;46.50
40289;DHT22;28991;52.028;5.526;2023-03-20T14:51:58;20.40;46.60
40289;DHT22;28991;52.028;5.526;2023-03-20T14:54:27;20.30;46.60
40289;DHT22;28991;52.028;5.526;2023-03-20T14:56:54;20.30;46.70
40289;DHT22;28991;52.028;5.526;2023-03-20T14:59:21;20.40;46.70
40289;DHT22;28991;52.028;5.526;2023-03-20T15:01:59;20.40;47.30
40289;DHT22;28991;52.028;5.526;2023-03-20T15:04:36;20.30;46.90
40289;DHT22;28991;52.028;5.526;2023-03-20T15:07:13;20.30;47.10
40289;DHT22;28991;52.028;5.526;2023-03-20T15:09:43;20.30;46.90
40289;DHT22;28991;52.028;5.526;2023-03-20T15:12:11;20.40;46.90
40289;DHT22;28991;52.028;5.526;2023-03-20T15:14:49;20.40;47.20
40289;DHT22;28991;52.028;5.526;2023-03-20T15:17:21;20.50;47.10
40289;DHT22;28991;52.028;5.526;2023-03-20T15:19:48;20.90;47.10
40289;DHT22;28991;52.028;5.526;2023-03-20T15:22:16;20.80;47.00
40289;DHT22;28991;52.028;5.526;2023-03-20T15:24:51;20.40;46.70
40289;DHT22;28991;52.028;5.526;2023-03-20T15:27:17;20.40;46.60
40289;DHT22;28991;52.028;5.526;2023-03-20T15:29:50;20.60;46.60
40289;DHT22;28991;52.028;5.526;2023-03-20T15:32:16;20.40;46.40
40289;DHT22;28991;52.028;5.526;2023-03-20T15:34:43;20.40;46.40
40289;DHT22;28991;52.028;5.526;2023-03-20T15:37:14;20.50;46.50
40289;DHT22;28991;52.028;5.526;2023-03-20T15:39:46;20.40;46.50
40289;DHT22;28991;52.028;5.526;2023-03-20T15:42:15;20.40;46.50
40289;DHT22;28991;52.028;5.526;2023-03-20T15:44:46;20.50;46.60
40289;DHT22;28991;52.028;5.526;2023-03-20T15:47:21;20.30;46.60
40289;DHT22;28991;52.028;5.526;2023-03-20T15:49:58;20.30;46.60
40289;DHT22;28991;52.028;5.526;2023-03-20T15:52:41;20.30;46.80
40289;DHT22;28991;52.028;5.526;2023-03-20T15:55:15;20.20;46.70
40289;DHT22;28991;52.028;5.526;2023-03-20T15:57:42;20.30;46.90
40289;DHT22;28991;52.028;5.526;2023-03-20T16:00:16;20.10;46.90
40289;DHT22;28991;52.028;5.526;2023-03-20T16:02:44;20.10;46.90
40289;DHT22;28991;52.028;5.526;2023-03-20T16:05:12;20.20;47.00
40289;DHT22;28991;52.028;5.526;2023-03-20T16:07:39;20.10;47.00
40289;DHT22;28991;52.028;5.526;2023-03-20T16:12:50;20.00;47.10
40289;DHT22;28991;52.028;5.526;2023-03-20T16:15:17;20.00;47.10
40289;DHT22;28991;52.028;5.526;2023-03-20T16:17:44;19.90;47.00
40289;DHT22;28991;52.028;5.526;2023-03-20T16:20:15;20.20;47.30
40289;DHT22;28991;52.028;5.526;2023-03-20T16:22:42;19.90;47.10
40289;DHT22;28991;52.028;5.526;2023-03-20T16:25:14;20.20;47.30
40289;DHT22;28991;52.028;5.526;2023-03-20T16:27:40;19.90;47.20
40289;DHT22;28991;52.028;5.526;2023-03-20T16:30:23;20.00;47.30
40289;DHT22;28991;52.028;5.526;2023-03-20T16:32:54;19.90;47.20
40289;DHT22;28991;52.028;5.526;2023-03-20T16:35:28;19.70;47.20
40289;DHT22;28991;52.028;5.526;2023-03-20T16:37:58;19.90;47.30
40289;DHT22;28991;52.028;5.526;2023-03-20T16:42:52;19.40;47.10
40289;DHT22;28991;52.028;5.526;2023-03-20T16:47:48;19.80;47.40
40289;DHT22;28991;52.028;5.526;2023-03-20T16:50:19;19.90;47.40
40289;DHT22;28991;52.028;5.526;2023-03-20T16:52:54;19.70;47.40
40289;DHT22;28991;52.028;5.526;2023-03-20T16:55:29;19.70;47.40
40289;DHT22;28991;52.028;5.526;2023-03-20T16:58:05;19.80;47.40
40289;DHT22;28991;52.028;5.526;2023-03-20T17:00:40;19.80;47.40
40289;DHT22;28991;52.028;5.526;2023-03-20T17:03:16;19.70;47.50
40289;DHT22;28991;52.028;5.526;2023-03-20T17:09:07;19.70;47.50
40289;DHT22;28991;52.028;5.526;2023-03-20T17:11:39;20.50;48.00
40289;DHT22;28991;52.028;5.526;2023-03-20T17:14:09;19.50;47.60
40289;DHT22;28991;52.028;5.526;2023-03-20T17:16:34;19.80;47.80
40289;DHT22;28991;52.028;5.526;2023-03-20T17:19:03;19.90;47.90
40289;DHT22;28991;52.028;5.526;2023-03-20T17:21:30;20.00;48.00
40289;DHT22;28991;52.028;5.526;2023-03-20T17:23:56;19.80;48.00
40289;DHT22;28991;52.028;5.526;2023-03-20T17:26:22;19.60;47.90
40289;DHT22;28991;52.028;5.526;2023-03-20T17:28:48;19.50;47.80
40289;DHT22;28991;52.028;5.526;2023-03-20T17:31:15;19.90;48.00
40289;DHT22;28991;52.028;5.526;2023-03-20T17:33:42;19.40;47.80
40289;DHT22;28991;52.028;5.526;2023-03-20T17:36:22;20.00;48.20
40289;DHT22;28991;52.028;5.526;2023-03-20T17:38:48;19.70;48.10
40289;DHT22;28991;52.028;5.526;2023-03-20T17:41:16;19.80;48.10
40289;DHT22;28991;52.028;5.526;2023-03-20T17:43:42;19.80;48.20
40289;DHT22;28991;52.028;5.526;2023-03-20T17:46:34;19.50;48.00
40289;DHT22;28991;52.028;5.526;2023-03-20T17:49:01;20.20;48.40
40289;DHT22;28991;52.028;5.526;2023-03-20T17:51:28;19.60;48.20
40289;DHT22;28991;52.028;5.526;2023-03-20T17:53:54;20.00;48.30
40289;DHT22;28991;52.028;5.526;2023-03-20T17:56:23;19.20;47.90
40289;DHT22;28991;52.028;5.526;2023-03-20T17:58:49;19.60;48.10
40289;DHT22;28991;52.028;5.526;2023-03-20T18:01:15;19.60;48.20
40289;DHT22;28991;52.028;5.526;2023-03-20T18:03:41;19.80;48.30
40289;DHT22;28991;52.028;5.526;2023-03-20T18:06:09;19.00;47.90
40289;DHT22;28991;52.028;5.526;2023-03-20T18:08:39;19.20;48.00
40289;DHT22;28991;52.028;5.526;2023-03-20T18:11:07;19.70;48.30
40289;DHT22;28991;52.028;5.526;2023-03-20T18:13:32;19.30;48.10
40289;DHT22;28991;52.028;5.526;2023-03-20T18:15:58;19.60;48.40